AEZ123 LIRF-LIME
Flight info
| Callsign | AEZ123 |
|---|---|
| Flight time | N/A |
| Altitude | 30000 |
| Route | GILIO M729 ELB L12 LOMED L995 OSBUL |
| Aircraft | B738/M-SDE2E3FGHIRWXY/LB1 |
Departure
| Time | 2026-05-05 18:59 |
|---|---|
| Airport | Rome–Fiumicino Leonardo da Vinci International Airport (LIRF) |
Arrival
| Time | N/A |
|---|---|
| Airport | Il Caravaggio International Airport (LIME) |
| Time | Latitude | Longitude | Altitude | Speed | Heading |
|---|---|---|---|---|---|
| 2026-05-05 18:33 | 41.80238 | 12.26318 | 15 ft | 0 kts | 205° |
| 2026-05-05 18:50 | 41.80241 | 12.26320 | 15 ft | 2 kts | 205° |
| 2026-05-05 18:50 | 41.80249 | 12.26325 | 15 ft | 1 kts | 205° |
| 2026-05-05 18:50 | 41.80263 | 12.26331 | 15 ft | 2 kts | 179° |
| 2026-05-05 18:51 | 41.80277 | 12.26328 | 15 ft | 2 kts | 160° |
| 2026-05-05 18:51 | 41.80291 | 12.26318 | 15 ft | 2 kts | 138° |
| 2026-05-05 18:51 | 41.80299 | 12.26304 | 15 ft | 0 kts | 118° |
| 2026-05-05 18:51 | 41.80302 | 12.26297 | 15 ft | 1 kts | 114° |
| 2026-05-05 18:52 | 41.80303 | 12.26295 | 15 ft | 0 kts | 115° |
| 2026-05-05 18:54 | 41.80301 | 12.26298 | 15 ft | 2 kts | 115° |
| 2026-05-05 18:54 | 41.80294 | 12.26321 | 15 ft | 2 kts | 115° |
| 2026-05-05 18:54 | 41.80288 | 12.26336 | 15 ft | 1 kts | 115° |
| 2026-05-05 18:54 | 41.80277 | 12.26370 | 15 ft | 8 kts | 105° |
| 2026-05-05 18:55 | 41.80345 | 12.26378 | 15 ft | 10 kts | 341° |
| 2026-05-05 18:55 | 41.80394 | 12.26333 | 15 ft | 12 kts | 288° |
| 2026-05-05 18:55 | 41.80377 | 12.26207 | 15 ft | 7 kts | 266° |
| 2026-05-05 18:55 | 41.80437 | 12.26153 | 15 ft | 12 kts | 5° |
| 2026-05-05 18:56 | 41.80507 | 12.26199 | 15 ft | 11 kts | 53° |
| 2026-05-05 18:56 | 41.80540 | 12.26289 | 15 ft | 10 kts | 71° |
| 2026-05-05 18:56 | 41.80563 | 12.26379 | 14 ft | 10 kts | 70° |
| 2026-05-05 18:56 | 41.80588 | 12.26466 | 14 ft | 9 kts | 68° |
| 2026-05-05 18:57 | 41.80612 | 12.26550 | 14 ft | 9 kts | 70° |
| 2026-05-05 18:57 | 41.80635 | 12.26636 | 14 ft | 9 kts | 70° |
| 2026-05-05 18:57 | 41.80662 | 12.26733 | 13 ft | 11 kts | 70° |
| 2026-05-05 18:57 | 41.80690 | 12.26835 | 13 ft | 11 kts | 69° |
| 2026-05-05 18:58 | 41.80721 | 12.26942 | 13 ft | 14 kts | 68° |
| 2026-05-05 18:58 | 41.80810 | 12.27029 | 12 ft | 20 kts | 349° |
| 2026-05-05 18:58 | 41.80929 | 12.26969 | 12 ft | 19 kts | 310° |
| 2026-05-05 18:58 | 41.80888 | 12.26690 | 13 ft | 56 kts | 250° |
| 2026-05-05 18:59 | 41.80662 | 12.25872 | 16 ft | 129 kts | 250° |
| 2026-05-05 18:59 | 41.80293 | 12.24468 | 109 ft | 180 kts | 249° |
| 2026-05-05 18:59 | 41.79890 | 12.22804 | 699 ft | 190 kts | 248° |
| 2026-05-05 18:59 | 41.79437 | 12.21080 | 1311 ft | 208 kts | 248° |
| 2026-05-05 19:00 | 41.79134 | 12.19093 | 1904 ft | 228 kts | 261° |
| 2026-05-05 19:00 | 41.79103 | 12.16934 | 2503 ft | 240 kts | 266° |
| 2026-05-05 19:00 | 41.79106 | 12.14652 | 3102 ft | 252 kts | 265° |
| 2026-05-05 19:00 | 41.79068 | 12.12272 | 3698 ft | 261 kts | 264° |
| 2026-05-05 19:01 | 41.79004 | 12.09817 | 4299 ft | 264 kts | 265° |
| 2026-05-05 19:01 | 41.78973 | 12.07390 | 4893 ft | 265 kts | 266° |
| 2026-05-05 19:01 | 41.78970 | 12.04920 | 5482 ft | 266 kts | 266° |
| 2026-05-05 19:01 | 41.78973 | 12.02425 | 6095 ft | 269 kts | 267° |
| 2026-05-05 19:02 | 41.78973 | 11.99933 | 6698 ft | 270 kts | 267° |
| 2026-05-05 19:02 | 41.78967 | 11.97439 | 7286 ft | 271 kts | 267° |
| 2026-05-05 19:02 | 41.78958 | 11.94913 | 7880 ft | 273 kts | 267° |
| 2026-05-05 19:02 | 41.78950 | 11.92375 | 8477 ft | 274 kts | 267° |
| 2026-05-05 19:03 | 41.78942 | 11.89827 | 9076 ft | 275 kts | 268° |
| 2026-05-05 19:03 | 41.78933 | 11.87256 | 9676 ft | 281 kts | 268° |
| 2026-05-05 19:03 | 41.79062 | 11.84685 | 10269 ft | 276 kts | 279° |
| 2026-05-05 19:03 | 41.79725 | 11.82333 | 10854 ft | 266 kts | 295° |
| 2026-05-05 19:04 | 41.80639 | 11.80244 | 11470 ft | 255 kts | 298° |
| 2026-05-05 19:04 | 41.81537 | 11.78282 | 12076 ft | 244 kts | 297° |
| 2026-05-05 19:04 | 41.82391 | 11.76397 | 12659 ft | 234 kts | 297° |
| 2026-05-05 19:04 | 41.83221 | 11.74538 | 13155 ft | 229 kts | 296° |
| 2026-05-05 19:05 | 41.84023 | 11.72734 | 13635 ft | 225 kts | 296° |
| 2026-05-05 19:05 | 41.84820 | 11.70938 | 14009 ft | 226 kts | 296° |
| 2026-05-05 19:05 | 41.85626 | 11.69112 | 14385 ft | 226 kts | 296° |
| 2026-05-05 19:05 | 41.86423 | 11.67303 | 14663 ft | 231 kts | 296° |
| 2026-05-05 19:06 | 41.87257 | 11.65396 | 14917 ft | 244 kts | 296° |
| 2026-05-05 19:06 | 41.88148 | 11.63352 | 15170 ft | 262 kts | 296° |
| 2026-05-05 19:06 | 41.89090 | 11.61195 | 15418 ft | 280 kts | 297° |
| 2026-05-05 19:06 | 41.90195 | 11.58990 | 15927 ft | 290 kts | 303° |
| 2026-05-05 19:07 | 41.91517 | 11.56897 | 16549 ft | 295 kts | 308° |
| 2026-05-05 19:07 | 41.92918 | 11.54908 | 17158 ft | 298 kts | 309° |
| 2026-05-05 19:07 | 41.94380 | 11.52889 | 17779 ft | 301 kts | 309° |
| 2026-05-05 19:07 | 41.95837 | 11.50867 | 18394 ft | 302 kts | 309° |
| 2026-05-05 19:08 | 41.97272 | 11.48857 | 19006 ft | 303 kts | 309° |
| 2026-05-05 19:08 | 41.98734 | 11.46790 | 19630 ft | 304 kts | 308° |
| 2026-05-05 19:08 | 42.00167 | 11.44748 | 20246 ft | 304 kts | 308° |
| 2026-05-05 19:08 | 42.01612 | 11.42692 | 20870 ft | 303 kts | 308° |
| 2026-05-05 19:09 | 42.03046 | 11.40651 | 21491 ft | 301 kts | 308° |
| 2026-05-05 19:09 | 42.04472 | 11.38621 | 22118 ft | 299 kts | 308° |
| 2026-05-05 19:09 | 42.05901 | 11.36590 | 22747 ft | 295 kts | 308° |
| 2026-05-05 19:09 | 42.07293 | 11.34613 | 23372 ft | 291 kts | 307° |
| 2026-05-05 19:10 | 42.08655 | 11.32672 | 23997 ft | 286 kts | 306° |
| 2026-05-05 19:10 | 42.09990 | 11.30760 | 24624 ft | 279 kts | 306° |
| 2026-05-05 19:10 | 42.11321 | 11.28866 | 25267 ft | 272 kts | 305° |
| 2026-05-05 19:10 | 42.12607 | 11.27046 | 25721 ft | 271 kts | 305° |
| 2026-05-05 19:11 | 42.13929 | 11.25152 | 25817 ft | 283 kts | 305° |
| 2026-05-05 19:11 | 42.15308 | 11.23161 | 25907 ft | 295 kts | 305° |
| 2026-05-05 19:11 | 42.16718 | 11.21119 | 26031 ft | 306 kts | 306° |
| 2026-05-05 19:11 | 42.18197 | 11.18982 | 26155 ft | 317 kts | 306° |
| 2026-05-05 19:12 | 42.19728 | 11.16782 | 26412 ft | 324 kts | 306° |
| 2026-05-05 19:12 | 42.21267 | 11.14577 | 26665 ft | 330 kts | 306° |
| 2026-05-05 19:12 | 42.22848 | 11.12304 | 26922 ft | 336 kts | 305° |
| 2026-05-05 19:12 | 42.24465 | 11.09973 | 27182 ft | 342 kts | 306° |
| 2026-05-05 19:13 | 42.26108 | 11.07607 | 27441 ft | 347 kts | 305° |
| 2026-05-05 19:13 | 42.27765 | 11.05217 | 27697 ft | 353 kts | 306° |
| 2026-05-05 19:13 | 42.29450 | 11.02783 | 27952 ft | 358 kts | 305° |
| 2026-05-05 19:13 | 42.31143 | 11.00339 | 28212 ft | 363 kts | 305° |
| 2026-05-05 19:14 | 42.32883 | 10.97825 | 28471 ft | 368 kts | 306° |
| 2026-05-05 19:14 | 42.34638 | 10.95286 | 28728 ft | 373 kts | 306° |
| 2026-05-05 19:14 | 42.36412 | 10.92715 | 28981 ft | 377 kts | 305° |
| 2026-05-05 19:14 | 42.38223 | 10.90091 | 29243 ft | 382 kts | 305° |
| 2026-05-05 19:15 | 42.40047 | 10.87451 | 29499 ft | 386 kts | 305° |
| 2026-05-05 19:15 | 42.41866 | 10.84815 | 29756 ft | 390 kts | 305° |
| 2026-05-05 19:15 | 42.43724 | 10.82121 | 29954 ft | 394 kts | 305° |
| 2026-05-05 19:15 | 42.45626 | 10.79360 | 29977 ft | 402 kts | 305° |
| 2026-05-05 19:16 | 42.49486 | 10.73740 | 29979 ft | 418 kts | 305° |
| 2026-05-05 19:16 | 42.53520 | 10.67855 | 29972 ft | 433 kts | 306° |
| 2026-05-05 19:17 | 42.57673 | 10.61788 | 29974 ft | 445 kts | 306° |
| 2026-05-05 19:17 | 42.61892 | 10.55634 | 29964 ft | 446 kts | 306° |
| 2026-05-05 19:18 | 42.66341 | 10.49823 | 29967 ft | 456 kts | 316° |
| 2026-05-05 19:18 | 42.72063 | 10.45783 | 29970 ft | 473 kts | 333° |
| 2026-05-05 19:19 | 42.78612 | 10.43882 | 29963 ft | 494 kts | 351° |
| 2026-05-05 19:19 | 42.82070 | 10.44140 | 29966 ft | 502 kts | 2° |
| 2026-05-05 19:19 | 42.85439 | 10.45131 | 29967 ft | 503 kts | 9° |
| 2026-05-05 19:20 | 42.92106 | 10.47883 | 29967 ft | 497 kts | 13° |
| 2026-05-05 19:20 | 42.98666 | 10.50930 | 29964 ft | 498 kts | 13° |
| 2026-05-05 19:21 | 43.05212 | 10.54038 | 29974 ft | 499 kts | 13° |
| 2026-05-05 19:21 | 43.11789 | 10.57153 | 29973 ft | 496 kts | 13° |
| 2026-05-05 19:22 | 43.18325 | 10.60222 | 29974 ft | 496 kts | 13° |
| 2026-05-05 19:22 | 43.24872 | 10.63287 | 29972 ft | 499 kts | 13° |
| 2026-05-05 19:23 | 43.31376 | 10.66330 | 29984 ft | 497 kts | 13° |
| 2026-05-05 19:23 | 43.37981 | 10.69389 | 29977 ft | 503 kts | 13° |
| 2026-05-05 19:24 | 43.44579 | 10.72451 | 29982 ft | 500 kts | 13° |
| 2026-05-05 19:24 | 43.51165 | 10.75532 | 29980 ft | 499 kts | 13° |
| 2026-05-05 19:25 | 43.57711 | 10.78649 | 29983 ft | 499 kts | 13° |
| 2026-05-05 19:25 | 43.64280 | 10.81791 | 29981 ft | 501 kts | 13° |
| 2026-05-05 19:26 | 43.70853 | 10.84915 | 29986 ft | 500 kts | 13° |
| 2026-05-05 19:26 | 43.77467 | 10.88044 | 29987 ft | 498 kts | 13° |
| 2026-05-05 19:27 | 43.83989 | 10.91134 | 29993 ft | 498 kts | 13° |
| 2026-05-05 19:27 | 43.90528 | 10.94238 | 29996 ft | 498 kts | 13° |
| 2026-05-05 19:28 | 43.97152 | 10.97124 | 30000 ft | 493 kts | 6° |
| 2026-05-05 19:28 | 44.00489 | 10.97664 | 30001 ft | 479 kts | 352° |
| 2026-05-05 19:28 | 44.03753 | 10.97092 | 30002 ft | 466 kts | 339° |
| 2026-05-05 19:29 | 44.09679 | 10.93977 | 29996 ft | 453 kts | 326° |
| 2026-05-05 19:29 | 44.15142 | 10.89642 | 29990 ft | 449 kts | 320° |
| 2026-05-05 19:30 | 44.20348 | 10.84922 | 29993 ft | 445 kts | 319° |
| 2026-05-05 19:30 | 44.25560 | 10.80145 | 29975 ft | 449 kts | 319° |
| 2026-05-05 19:31 | 44.30829 | 10.75384 | 29984 ft | 452 kts | 320° |
| 2026-05-05 19:31 | 44.36092 | 10.70673 | 29975 ft | 454 kts | 320° |
| 2026-05-05 19:32 | 44.41394 | 10.65946 | 29987 ft | 453 kts | 320° |
| 2026-05-05 19:32 | 44.46692 | 10.61232 | 29980 ft | 453 kts | 320° |
| 2026-05-05 19:33 | 44.51974 | 10.56517 | 29969 ft | 452 kts | 320° |
| 2026-05-05 19:33 | 44.57287 | 10.51726 | 29651 ft | 457 kts | 320° |
| 2026-05-05 19:34 | 44.59964 | 10.49292 | 29004 ft | 460 kts | 320° |
| 2026-05-05 19:34 | 44.62613 | 10.46890 | 28358 ft | 456 kts | 320° |
| 2026-05-05 19:34 | 44.65282 | 10.44469 | 27702 ft | 451 kts | 321° |
| 2026-05-05 19:35 | 44.70492 | 10.39742 | 26415 ft | 444 kts | 321° |
| 2026-05-05 19:35 | 44.73076 | 10.37394 | 25766 ft | 440 kts | 321° |
| 2026-05-05 19:35 | 44.75616 | 10.35084 | 25128 ft | 436 kts | 321° |
| 2026-05-05 19:35 | 44.78165 | 10.32763 | 24480 ft | 433 kts | 321° |
| 2026-05-05 19:36 | 44.80685 | 10.30473 | 23834 ft | 430 kts | 321° |
| 2026-05-05 19:36 | 44.83193 | 10.28193 | 23192 ft | 427 kts | 321° |
| 2026-05-05 19:36 | 44.85686 | 10.25958 | 22553 ft | 425 kts | 321° |
| 2026-05-05 19:36 | 44.88176 | 10.23749 | 21915 ft | 422 kts | 322° |
| 2026-05-05 19:37 | 44.90672 | 10.21573 | 21297 ft | 421 kts | 323° |
| 2026-05-05 19:37 | 44.93274 | 10.19734 | 20679 ft | 423 kts | 332° |
| 2026-05-05 19:37 | 44.96073 | 10.18465 | 20043 ft | 426 kts | 342° |
| 2026-05-05 19:37 | 44.98995 | 10.17848 | 19431 ft | 428 kts | 352° |
| 2026-05-05 19:38 | 45.01963 | 10.17524 | 18819 ft | 423 kts | 347° |
| 2026-05-05 19:38 | 45.04771 | 10.16604 | 18200 ft | 415 kts | 338° |
| 2026-05-05 19:38 | 45.07451 | 10.15242 | 17590 ft | 404 kts | 333° |
| 2026-05-05 19:38 | 45.09991 | 10.13801 | 16967 ft | 394 kts | 333° |
| 2026-05-05 19:39 | 45.12526 | 10.12402 | 16356 ft | 386 kts | 334° |
| 2026-05-05 19:39 | 45.15022 | 10.11133 | 15725 ft | 378 kts | 336° |
| 2026-05-05 19:39 | 45.17527 | 10.09964 | 15096 ft | 371 kts | 338° |
| 2026-05-05 19:39 | 45.19950 | 10.08897 | 14464 ft | 368 kts | 339° |
| 2026-05-05 19:40 | 45.22406 | 10.07850 | 13808 ft | 363 kts | 339° |
| 2026-05-05 19:40 | 45.24790 | 10.06847 | 13209 ft | 360 kts | 339° |
| 2026-05-05 19:40 | 45.27194 | 10.05838 | 12579 ft | 360 kts | 340° |
| 2026-05-05 19:40 | 45.29570 | 10.04839 | 11965 ft | 361 kts | 340° |
| 2026-05-05 19:41 | 45.31967 | 10.03827 | 11355 ft | 361 kts | 340° |
| 2026-05-05 19:41 | 45.34373 | 10.02807 | 10742 ft | 360 kts | 340° |
| 2026-05-05 19:41 | 45.36771 | 10.01790 | 10142 ft | 354 kts | 340° |
| 2026-05-05 19:41 | 45.39082 | 10.00817 | 9868 ft | 337 kts | 340° |
| 2026-05-05 19:42 | 45.41278 | 9.99895 | 9618 ft | 322 kts | 340° |
| 2026-05-05 19:42 | 45.43385 | 9.99010 | 9350 ft | 311 kts | 340° |
| 2026-05-05 19:42 | 45.45427 | 9.98146 | 8991 ft | 305 kts | 340° |
| 2026-05-05 19:42 | 45.47437 | 9.97293 | 8617 ft | 301 kts | 341° |
| 2026-05-05 19:43 | 45.49445 | 9.96486 | 8242 ft | 298 kts | 346° |
| 2026-05-05 19:43 | 45.51480 | 9.96133 | 7865 ft | 294 kts | 354° |
| 2026-05-05 19:43 | 45.53514 | 9.96011 | 7497 ft | 293 kts | 357° |
| 2026-05-05 19:43 | 45.55541 | 9.95939 | 7080 ft | 292 kts | 358° |
| 2026-05-05 19:44 | 45.57583 | 9.95869 | 6676 ft | 290 kts | 358° |
| 2026-05-05 19:44 | 45.59582 | 9.95701 | 6304 ft | 289 kts | 352° |
| 2026-05-05 19:44 | 45.61456 | 9.94848 | 6070 ft | 281 kts | 325° |
| 2026-05-05 19:44 | 45.62741 | 9.92850 | 5887 ft | 270 kts | 296° |
| 2026-05-05 19:45 | 45.63263 | 9.90349 | 5704 ft | 259 kts | 274° |
| 2026-05-05 19:45 | 45.63466 | 9.87843 | 5530 ft | 253 kts | 278° |
| 2026-05-05 19:45 | 45.63840 | 9.85368 | 5077 ft | 262 kts | 280° |
| 2026-05-05 19:45 | 45.64288 | 9.82702 | 4078 ft | 294 kts | 285° |
| 2026-05-05 19:46 | 45.64906 | 9.79867 | 2752 ft | 323 kts | 287° |
| 2026-05-05 19:46 | 45.65600 | 9.76755 | 1482 ft | 342 kts | 287° |
| 2026-05-05 19:46 | 45.66229 | 9.73539 | 936 ft | 334 kts | 285° |
| 2026-05-05 19:46 | 45.66826 | 9.70416 | 806 ft | 310 kts | 284° |